sensor_id;sensor_type;location;lat;lon;timestamp;P1;durP1;ratioP1;P2;durP2;ratioP2
5937;SDS011;2994;51.220;4.412;2022-07-12T00:01:52;4.47;;;4.07;;
5937;SDS011;2994;51.220;4.412;2022-07-12T00:04:18;3.93;;;3.60;;
5937;SDS011;2994;51.220;4.412;2022-07-12T00:06:43;4.50;;;4.20;;
5937;SDS011;2994;51.220;4.412;2022-07-12T00:09:09;4.83;;;4.30;;
5937;SDS011;2994;51.220;4.412;2022-07-12T00:11:35;4.60;;;4.20;;
5937;SDS011;2994;51.220;4.412;2022-07-12T00:14:01;4.73;;;4.33;;
5937;SDS011;2994;51.220;4.412;2022-07-12T00:16:27;5.30;;;4.80;;
5937;SDS011;2994;51.220;4.412;2022-07-12T00:18:52;4.93;;;4.43;;
5937;SDS011;2994;51.220;4.412;2022-07-12T00:21:19;4.47;;;4.07;;
5937;SDS011;2994;51.220;4.412;2022-07-12T00:23:44;4.90;;;4.40;;
5937;SDS011;2994;51.220;4.412;2022-07-12T00:26:10;4.50;;;4.10;;
5937;SDS011;2994;51.220;4.412;2022-07-12T00:28:35;5.10;;;4.70;;
5937;SDS011;2994;51.220;4.412;2022-07-12T00:31:01;3.87;;;3.50;;
5937;SDS011;2994;51.220;4.412;2022-07-12T00:33:26;5.97;;;3.87;;
5937;SDS011;2994;51.220;4.412;2022-07-12T00:35:52;4.13;;;3.73;;
5937;SDS011;2994;51.220;4.412;2022-07-12T00:38:18;4.77;;;4.30;;
5937;SDS011;2994;51.220;4.412;2022-07-12T00:40:43;4.47;;;3.93;;
5937;SDS011;2994;51.220;4.412;2022-07-12T00:43:09;5.20;;;4.43;;
5937;SDS011;2994;51.220;4.412;2022-07-12T00:45:34;4.50;;;4.10;;
5937;SDS011;2994;51.220;4.412;2022-07-12T00:48:00;4.50;;;4.10;;
5937;SDS011;2994;51.220;4.412;2022-07-12T00:50:26;4.13;;;3.50;;
5937;SDS011;2994;51.220;4.412;2022-07-12T00:52:52;4.63;;;4.03;;
5937;SDS011;2994;51.220;4.412;2022-07-12T00:55:19;5.00;;;4.50;;
5937;SDS011;2994;51.220;4.412;2022-07-12T00:57:46;4.20;;;3.83;;
5937;SDS011;2994;51.220;4.412;2022-07-12T01:00:16;5.00;;;4.50;;
5937;SDS011;2994;51.220;4.412;2022-07-12T01:02:47;4.00;;;3.70;;
5937;SDS011;2994;51.220;4.412;2022-07-12T01:05:12;4.10;;;3.80;;
5937;SDS011;2994;51.220;4.412;2022-07-12T01:07:38;4.37;;;3.97;;
5937;SDS011;2994;51.220;4.412;2022-07-12T01:10:05;4.70;;;4.30;;
5937;SDS011;2994;51.220;4.412;2022-07-12T01:12:31;5.07;;;4.67;;
5937;SDS011;2994;51.220;4.412;2022-07-12T01:14:57;5.83;;;4.47;;
5937;SDS011;2994;51.220;4.412;2022-07-12T01:17:24;4.10;;;3.70;;
5937;SDS011;2994;51.220;4.412;2022-07-12T01:19:52;4.30;;;3.90;;
5937;SDS011;2994;51.220;4.412;2022-07-12T01:22:20;4.90;;;4.50;;
5937;SDS011;2994;51.220;4.412;2022-07-12T01:24:50;4.70;;;4.30;;
5937;SDS011;2994;51.220;4.412;2022-07-12T01:27:15;5.17;;;4.40;;
5937;SDS011;2994;51.220;4.412;2022-07-12T01:29:41;4.60;;;4.20;;
5937;SDS011;2994;51.220;4.412;2022-07-12T01:32:06;5.20;;;4.50;;
5937;SDS011;2994;51.220;4.412;2022-07-12T01:34:51;5.27;;;4.77;;
5937;SDS011;2994;51.220;4.412;2022-07-12T01:37:30;4.70;;;4.30;;
5937;SDS011;2994;51.220;4.412;2022-07-12T01:39:58;4.80;;;4.37;;
5937;SDS011;2994;51.220;4.412;2022-07-12T01:42:25;4.17;;;3.77;;
5937;SDS011;2994;51.220;4.412;2022-07-12T01:44:52;5.43;;;4.93;;
5937;SDS011;2994;51.220;4.412;2022-07-12T01:47:19;4.60;;;4.20;;
5937;SDS011;2994;51.220;4.412;2022-07-12T01:49:46;4.80;;;4.30;;
5937;SDS011;2994;51.220;4.412;2022-07-12T01:52:12;5.17;;;4.77;;
5937;SDS011;2994;51.220;4.412;2022-07-12T01:54:38;4.90;;;4.50;;
5937;SDS011;2994;51.220;4.412;2022-07-12T01:57:04;6.00;;;5.47;;
5937;SDS011;2994;51.220;4.412;2022-07-12T01:59:30;5.20;;;4.70;;
5937;SDS011;2994;51.220;4.412;2022-07-12T02:01:56;4.73;;;4.30;;
5937;SDS011;2994;51.220;4.412;2022-07-12T02:04:22;4.73;;;4.33;;
5937;SDS011;2994;51.220;4.412;2022-07-12T02:06:48;6.13;;;5.53;;
5937;SDS011;2994;51.220;4.412;2022-07-12T02:09:14;4.27;;;3.80;;
5937;SDS011;2994;51.220;4.412;2022-07-12T02:11:41;4.87;;;4.37;;
5937;SDS011;2994;51.220;4.412;2022-07-12T02:14:08;4.80;;;4.40;;
5937;SDS011;2994;51.220;4.412;2022-07-12T02:16:34;5.63;;;5.23;;
5937;SDS011;2994;51.220;4.412;2022-07-12T02:18:59;4.97;;;4.57;;
5937;SDS011;2994;51.220;4.412;2022-07-12T02:21:25;4.33;;;3.93;;
5937;SDS011;2994;51.220;4.412;2022-07-12T02:23:51;5.90;;;5.30;;
5937;SDS011;2994;51.220;4.412;2022-07-12T02:26:16;4.83;;;4.33;;
5937;SDS011;2994;51.220;4.412;2022-07-12T02:28:42;7.73;;;6.93;;
5937;SDS011;2994;51.220;4.412;2022-07-12T02:31:08;6.20;;;4.80;;
5937;SDS011;2994;51.220;4.412;2022-07-12T02:33:33;6.77;;;5.20;;
5937;SDS011;2994;51.220;4.412;2022-07-12T02:35:59;5.63;;;5.10;;
5937;SDS011;2994;51.220;4.412;2022-07-12T02:38:25;5.37;;;4.87;;
5937;SDS011;2994;51.220;4.412;2022-07-12T02:40:50;5.40;;;4.90;;
5937;SDS011;2994;51.220;4.412;2022-07-12T02:43:19;4.67;;;4.27;;
5937;SDS011;2994;51.220;4.412;2022-07-12T02:45:48;5.90;;;5.30;;
5937;SDS011;2994;51.220;4.412;2022-07-12T02:48:14;5.93;;;5.43;;
5937;SDS011;2994;51.220;4.412;2022-07-12T02:50:40;5.73;;;5.07;;
5937;SDS011;2994;51.220;4.412;2022-07-12T02:53:06;5.37;;;4.90;;
5937;SDS011;2994;51.220;4.412;2022-07-12T02:55:32;6.20;;;5.03;;
5937;SDS011;2994;51.220;4.412;2022-07-12T02:57:58;6.23;;;5.63;;
5937;SDS011;2994;51.220;4.412;2022-07-12T03:00:24;5.57;;;5.07;;
5937;SDS011;2994;51.220;4.412;2022-07-12T03:02:49;5.97;;;5.37;;
5937;SDS011;2994;51.220;4.412;2022-07-12T03:05:15;6.10;;;5.60;;
5937;SDS011;2994;51.220;4.412;2022-07-12T03:07:40;4.90;;;4.50;;
5937;SDS011;2994;51.220;4.412;2022-07-12T03:10:06;5.90;;;5.30;;
5937;SDS011;2994;51.220;4.412;2022-07-12T03:12:32;6.73;;;6.07;;
5937;SDS011;2994;51.220;4.412;2022-07-12T03:14:58;7.07;;;6.40;;
5937;SDS011;2994;51.220;4.412;2022-07-12T03:17:23;7.03;;;6.40;;
5937;SDS011;2994;51.220;4.412;2022-07-12T03:19:49;7.67;;;6.97;;
5937;SDS011;2994;51.220;4.412;2022-07-12T03:22:14;6.70;;;6.10;;
5937;SDS011;2994;51.220;4.412;2022-07-12T03:24:39;7.10;;;6.50;;
5937;SDS011;2994;51.220;4.412;2022-07-12T03:27:05;7.40;;;6.80;;
5937;SDS011;2994;51.220;4.412;2022-07-12T03:29:31;7.07;;;6.40;;
5937;SDS011;2994;51.220;4.412;2022-07-12T03:31:56;6.80;;;6.30;;
5937;SDS011;2994;51.220;4.412;2022-07-12T03:34:22;7.63;;;6.93;;
5937;SDS011;2994;51.220;4.412;2022-07-12T03:36:47;7.37;;;6.10;;
5937;SDS011;2994;51.220;4.412;2022-07-12T03:39:13;6.67;;;6.00;;
5937;SDS011;2994;51.220;4.412;2022-07-12T03:41:38;7.03;;;6.33;;
5937;SDS011;2994;51.220;4.412;2022-07-12T03:44:04;7.30;;;6.60;;
5937;SDS011;2994;51.220;4.412;2022-07-12T03:46:31;6.70;;;6.10;;
5937;SDS011;2994;51.220;4.412;2022-07-12T03:48:57;6.63;;;6.03;;
5937;SDS011;2994;51.220;4.412;2022-07-12T03:51:24;7.73;;;6.93;;
5937;SDS011;2994;51.220;4.412;2022-07-12T03:53:49;7.40;;;6.70;;
5937;SDS011;2994;51.220;4.412;2022-07-12T03:56:14;7.07;;;6.47;;
5937;SDS011;2994;51.220;4.412;2022-07-12T03:59:00;7.67;;;6.97;;
5937;SDS011;2994;51.220;4.412;2022-07-12T04:01:25;7.07;;;6.37;;
5937;SDS011;2994;51.220;4.412;2022-07-12T04:03:51;7.87;;;7.10;;
5937;SDS011;2994;51.220;4.412;2022-07-12T04:06:16;7.10;;;6.40;;
5937;SDS011;2994;51.220;4.412;2022-07-12T04:08:42;7.17;;;6.57;;
5937;SDS011;2994;51.220;4.412;2022-07-12T04:11:07;8.10;;;7.30;;
5937;SDS011;2994;51.220;4.412;2022-07-12T04:13:33;8.47;;;7.57;;
5937;SDS011;2994;51.220;4.412;2022-07-12T04:15:58;7.10;;;6.40;;
5937;SDS011;2994;51.220;4.412;2022-07-12T04:18:24;7.60;;;6.37;;
5937;SDS011;2994;51.220;4.412;2022-07-12T04:20:49;7.93;;;7.13;;
5937;SDS011;2994;51.220;4.412;2022-07-12T04:23:15;7.43;;;6.63;;
5937;SDS011;2994;51.220;4.412;2022-07-12T04:25:40;8.50;;;6.90;;
5937;SDS011;2994;51.220;4.412;2022-07-12T04:28:06;7.73;;;6.07;;
5937;SDS011;2994;51.220;4.412;2022-07-12T04:30:31;7.60;;;6.57;;
5937;SDS011;2994;51.220;4.412;2022-07-12T04:32:57;7.07;;;6.37;;
5937;SDS011;2994;51.220;4.412;2022-07-12T04:35:22;9.23;;;6.20;;
5937;SDS011;2994;51.220;4.412;2022-07-12T04:37:47;7.13;;;6.43;;
5937;SDS011;2994;51.220;4.412;2022-07-12T04:40:13;7.13;;;6.53;;
5937;SDS011;2994;51.220;4.412;2022-07-12T04:42:38;6.80;;;6.13;;
5937;SDS011;2994;51.220;4.412;2022-07-12T04:45:04;7.83;;;5.67;;
5937;SDS011;2994;51.220;4.412;2022-07-12T04:47:30;6.47;;;5.87;;
5937;SDS011;2994;51.220;4.412;2022-07-12T04:49:55;6.17;;;5.57;;
5937;SDS011;2994;51.220;4.412;2022-07-12T04:52:21;6.17;;;5.67;;
5937;SDS011;2994;51.220;4.412;2022-07-12T04:54:46;7.47;;;6.20;;
5937;SDS011;2994;51.220;4.412;2022-07-12T04:57:12;6.23;;;5.73;;
5937;SDS011;2994;51.220;4.412;2022-07-12T04:59:37;5.60;;;5.10;;
5937;SDS011;2994;51.220;4.412;2022-07-12T05:02:03;6.13;;;5.53;;
5937;SDS011;2994;51.220;4.412;2022-07-12T05:04:32;6.77;;;5.60;;
5937;SDS011;2994;51.220;4.412;2022-07-12T05:06:58;6.30;;;5.70;;
5937;SDS011;2994;51.220;4.412;2022-07-12T05:09:24;5.80;;;5.37;;
5937;SDS011;2994;51.220;4.412;2022-07-12T05:11:49;6.00;;;5.43;;
5937;SDS011;2994;51.220;4.412;2022-07-12T05:14:15;6.93;;;6.30;;
5937;SDS011;2994;51.220;4.412;2022-07-12T05:16:41;6.10;;;5.50;;
5937;SDS011;2994;51.220;4.412;2022-07-12T05:19:06;6.57;;;5.70;;
5937;SDS011;2994;51.220;4.412;2022-07-12T05:21:32;6.07;;;5.40;;
5937;SDS011;2994;51.220;4.412;2022-07-12T05:23:59;5.90;;;5.40;;
5937;SDS011;2994;51.220;4.412;2022-07-12T05:26:25;6.10;;;5.50;;
5937;SDS011;2994;51.220;4.412;2022-07-12T05:28:51;6.90;;;5.90;;
5937;SDS011;2994;51.220;4.412;2022-07-12T05:31:17;5.83;;;5.33;;
5937;SDS011;2994;51.220;4.412;2022-07-12T05:33:43;6.50;;;5.90;;
5937;SDS011;2994;51.220;4.412;2022-07-12T05:36:09;5.87;;;5.37;;
5937;SDS011;2994;51.220;4.412;2022-07-12T05:38:34;6.67;;;6.00;;
5937;SDS011;2994;51.220;4.412;2022-07-12T05:41:00;7.37;;;6.03;;
5937;SDS011;2994;51.220;4.412;2022-07-12T05:43:25;6.63;;;5.93;;
5937;SDS011;2994;51.220;4.412;2022-07-12T05:45:51;6.57;;;5.97;;
5937;SDS011;2994;51.220;4.412;2022-07-12T05:48:16;7.03;;;6.30;;
5937;SDS011;2994;51.220;4.412;2022-07-12T05:50:41;6.00;;;5.40;;
5937;SDS011;2994;51.220;4.412;2022-07-12T05:53:07;6.83;;;5.80;;
5937;SDS011;2994;51.220;4.412;2022-07-12T05:55:48;6.03;;;5.50;;
5937;SDS011;2994;51.220;4.412;2022-07-12T05:58:15;7.03;;;5.80;;
5937;SDS011;2994;51.220;4.412;2022-07-12T06:00:40;6.00;;;5.50;;
5937;SDS011;2994;51.220;4.412;2022-07-12T06:03:06;6.50;;;5.80;;
5937;SDS011;2994;51.220;4.412;2022-07-12T06:05:31;6.80;;;6.20;;
5937;SDS011;2994;51.220;4.412;2022-07-12T06:07:57;7.23;;;6.10;;
5937;SDS011;2994;51.220;4.412;2022-07-12T06:10:22;6.73;;;5.97;;
5937;SDS011;2994;51.220;4.412;2022-07-12T06:12:48;8.30;;;6.57;;
5937;SDS011;2994;51.220;4.412;2022-07-12T06:15:13;6.17;;;5.77;;
5937;SDS011;2994;51.220;4.412;2022-07-12T06:17:39;7.83;;;7.03;;
5937;SDS011;2994;51.220;4.412;2022-07-12T06:20:05;7.17;;;6.40;;
5937;SDS011;2994;51.220;4.412;2022-07-12T06:22:31;6.83;;;5.63;;
5937;SDS011;2994;51.220;4.412;2022-07-12T06:24:56;6.67;;;6.07;;
5937;SDS011;2994;51.220;4.412;2022-07-12T06:27:22;7.40;;;6.60;;
5937;SDS011;2994;51.220;4.412;2022-07-12T06:29:47;7.77;;;6.53;;
5937;SDS011;2994;51.220;4.412;2022-07-12T06:32:14;6.60;;;5.90;;
5937;SDS011;2994;51.220;4.412;2022-07-12T06:34:40;7.03;;;6.43;;
5937;SDS011;2994;51.220;4.412;2022-07-12T06:37:06;6.47;;;5.87;;
5937;SDS011;2994;51.220;4.412;2022-07-12T06:39:33;5.73;;;5.20;;
5937;SDS011;2994;51.220;4.412;2022-07-12T06:42:02;5.57;;;5.00;;
5937;SDS011;2994;51.220;4.412;2022-07-12T06:44:31;6.13;;;5.53;;
5937;SDS011;2994;51.220;4.412;2022-07-12T06:46:57;5.60;;;5.10;;
5937;SDS011;2994;51.220;4.412;2022-07-12T06:49:23;5.73;;;4.73;;
5937;SDS011;2994;51.220;4.412;2022-07-12T06:51:49;6.13;;;4.77;;
5937;SDS011;2994;51.220;4.412;2022-07-12T06:54:14;5.87;;;5.33;;
5937;SDS011;2994;51.220;4.412;2022-07-12T06:56:39;6.10;;;5.50;;
5937;SDS011;2994;51.220;4.412;2022-07-12T06:59:06;7.13;;;5.87;;
5937;SDS011;2994;51.220;4.412;2022-07-12T07:01:35;6.63;;;6.03;;
5937;SDS011;2994;51.220;4.412;2022-07-12T07:04:01;7.43;;;6.73;;
5937;SDS011;2994;51.220;4.412;2022-07-12T07:06:27;6.23;;;5.40;;
5937;SDS011;2994;51.220;4.412;2022-07-12T07:08:52;9.20;;;7.30;;
5937;SDS011;2994;51.220;4.412;2022-07-12T07:11:18;7.20;;;6.50;;
5937;SDS011;2994;51.220;4.412;2022-07-12T07:13:43;7.80;;;7.00;;
5937;SDS011;2994;51.220;4.412;2022-07-12T07:16:08;7.07;;;6.03;;
5937;SDS011;2994;51.220;4.412;2022-07-12T07:18:34;10.57;;;6.67;;
5937;SDS011;2994;51.220;4.412;2022-07-12T07:20:59;8.60;;;7.53;;
5937;SDS011;2994;51.220;4.412;2022-07-12T07:23:25;8.97;;;8.07;;
5937;SDS011;2994;51.220;4.412;2022-07-12T07:25:50;6.50;;;5.90;;
5937;SDS011;2994;51.220;4.412;2022-07-12T07:28:16;7.50;;;6.80;;
5937;SDS011;2994;51.220;4.412;2022-07-12T07:30:41;9.80;;;6.20;;
5937;SDS011;2994;51.220;4.412;2022-07-12T07:33:19;7.50;;;6.80;;
5937;SDS011;2994;51.220;4.412;2022-07-12T07:35:48;8.40;;;7.60;;
5937;SDS011;2994;51.220;4.412;2022-07-12T07:38:15;7.90;;;7.10;;
5937;SDS011;2994;51.220;4.412;2022-07-12T07:40:41;6.30;;;5.70;;
5937;SDS011;2994;51.220;4.412;2022-07-12T07:43:06;7.50;;;6.80;;
5937;SDS011;2994;51.220;4.412;2022-07-12T07:45:32;7.17;;;6.57;;
5937;SDS011;2994;51.220;4.412;2022-07-12T07:47:57;6.70;;;6.07;;
5937;SDS011;2994;51.220;4.412;2022-07-12T07:50:23;6.80;;;6.20;;
5937;SDS011;2994;51.220;4.412;2022-07-12T07:52:48;6.40;;;5.80;;
5937;SDS011;2994;51.220;4.412;2022-07-12T07:55:15;8.03;;;7.23;;
5937;SDS011;2994;51.220;4.412;2022-07-12T07:57:41;9.10;;;8.30;;
5937;SDS011;2994;51.220;4.412;2022-07-12T08:00:06;8.27;;;7.47;;
5937;SDS011;2994;51.220;4.412;2022-07-12T08:02:32;8.97;;;8.10;;
5937;SDS011;2994;51.220;4.412;2022-07-12T08:04:57;8.53;;;7.73;;
5937;SDS011;2994;51.220;4.412;2022-07-12T08:07:23;7.20;;;6.50;;
5937;SDS011;2994;51.220;4.412;2022-07-12T08:09:48;8.47;;;7.67;;
5937;SDS011;2994;51.220;4.412;2022-07-12T08:12:14;7.90;;;7.10;;
5937;SDS011;2994;51.220;4.412;2022-07-12T08:14:39;7.60;;;6.87;;
5937;SDS011;2994;51.220;4.412;2022-07-12T08:17:05;7.63;;;6.80;;
5937;SDS011;2994;51.220;4.412;2022-07-12T08:19:30;7.57;;;6.90;;
5937;SDS011;2994;51.220;4.412;2022-07-12T08:21:56;6.40;;;5.90;;
5937;SDS011;2994;51.220;4.412;2022-07-12T08:24:21;8.13;;;7.37;;
5937;SDS011;2994;51.220;4.412;2022-07-12T08:26:46;7.60;;;6.37;;
5937;SDS011;2994;51.220;4.412;2022-07-12T08:29:13;6.70;;;6.10;;
5937;SDS011;2994;51.220;4.412;2022-07-12T08:31:38;7.17;;;6.57;;
5937;SDS011;2994;51.220;4.412;2022-07-12T08:34:04;7.03;;;6.43;;
5937;SDS011;2994;51.220;4.412;2022-07-12T08:36:29;8.00;;;7.30;;
5937;SDS011;2994;51.220;4.412;2022-07-12T08:38:55;7.50;;;6.83;;
5937;SDS011;2994;51.220;4.412;2022-07-12T08:41:20;7.27;;;6.67;;
5937;SDS011;2994;51.220;4.412;2022-07-12T08:43:46;6.60;;;6.10;;
5937;SDS011;2994;51.220;4.412;2022-07-12T08:46:12;7.17;;;6.17;;
5937;SDS011;2994;51.220;4.412;2022-07-12T08:48:39;7.00;;;6.43;;
5937;SDS011;2994;51.220;4.412;2022-07-12T08:51:06;7.13;;;6.50;;
5937;SDS011;2994;51.220;4.412;2022-07-12T08:53:36;7.70;;;7.00;;
5937;SDS011;2994;51.220;4.412;2022-07-12T08:56:03;6.70;;;6.17;;
5937;SDS011;2994;51.220;4.412;2022-07-12T08:58:29;7.37;;;6.63;;
5937;SDS011;2994;51.220;4.412;2022-07-12T09:00:55;7.20;;;6.60;;
5937;SDS011;2994;51.220;4.412;2022-07-12T09:03:20;8.10;;;7.40;;
5937;SDS011;2994;51.220;4.412;2022-07-12T09:05:50;7.87;;;7.17;;
5937;SDS011;2994;51.220;4.412;2022-07-12T09:08:18;7.60;;;6.93;;
5937;SDS011;2994;51.220;4.412;2022-07-12T09:13:15;7.23;;;6.63;;
5937;SDS011;2994;51.220;4.412;2022-07-12T09:15:41;8.20;;;7.40;;
5937;SDS011;2994;51.220;4.412;2022-07-12T09:18:07;7.77;;;7.10;;
5937;SDS011;2994;51.220;4.412;2022-07-12T09:20:40;8.03;;;7.40;;
5937;SDS011;2994;51.220;4.412;2022-07-12T09:23:09;7.10;;;6.50;;
5937;SDS011;2994;51.220;4.412;2022-07-12T09:25:43;8.10;;;7.40;;
5937;SDS011;2994;51.220;4.412;2022-07-12T09:28:10;7.33;;;6.73;;
5937;SDS011;2994;51.220;4.412;2022-07-12T09:30:36;6.77;;;6.27;;
5937;SDS011;2994;51.220;4.412;2022-07-12T09:38:35;6.80;;;6.20;;
5937;SDS011;2994;51.220;4.412;2022-07-12T09:41:03;7.30;;;6.60;;
5937;SDS011;2994;51.220;4.412;2022-07-12T09:43:41;7.80;;;7.13;;
5937;SDS011;2994;51.220;4.412;2022-07-12T09:46:07;7.60;;;7.00;;
5937;SDS011;2994;51.220;4.412;2022-07-12T09:48:33;6.73;;;6.13;;
5937;SDS011;2994;51.220;4.412;2022-07-12T09:50:58;7.20;;;6.60;;
5937;SDS011;2994;51.220;4.412;2022-07-12T09:53:28;7.70;;;6.90;;
5937;SDS011;2994;51.220;4.412;2022-07-12T09:55:56;7.57;;;6.97;;
5937;SDS011;2994;51.220;4.412;2022-07-12T09:58:23;6.80;;;6.20;;
5937;SDS011;2994;51.220;4.412;2022-07-12T10:00:51;6.63;;;6.03;;
5937;SDS011;2994;51.220;4.412;2022-07-12T10:03:21;7.00;;;6.40;;
5937;SDS011;2994;51.220;4.412;2022-07-12T10:05:51;7.00;;;6.40;;
5937;SDS011;2994;51.220;4.412;2022-07-12T10:08:18;7.67;;;6.97;;
5937;SDS011;2994;51.220;4.412;2022-07-12T10:10:45;7.33;;;6.63;;
5937;SDS011;2994;51.220;4.412;2022-07-12T10:13:11;7.60;;;6.93;;
5937;SDS011;2994;51.220;4.412;2022-07-12T10:15:37;7.00;;;6.30;;
5937;SDS011;2994;51.220;4.412;2022-07-12T10:18:04;6.27;;;5.70;;
5937;SDS011;2994;51.220;4.412;2022-07-12T10:20:30;5.50;;;5.00;;
5937;SDS011;2994;51.220;4.412;2022-07-12T10:23:27;5.20;;;4.80;;
5937;SDS011;2994;51.220;4.412;2022-07-12T10:25:51;5.90;;;5.40;;
5937;SDS011;2994;51.220;4.412;2022-07-12T10:28:16;6.63;;;6.00;;
5937;SDS011;2994;51.220;4.412;2022-07-12T10:30:43;5.50;;;5.10;;
5937;SDS011;2994;51.220;4.412;2022-07-12T10:33:22;5.40;;;5.00;;
5937;SDS011;2994;51.220;4.412;2022-07-12T10:38:31;5.80;;;5.30;;
5937;SDS011;2994;51.220;4.412;2022-07-12T10:40:57;6.30;;;5.80;;
5937;SDS011;2994;51.220;4.412;2022-07-12T10:43:40;5.60;;;4.93;;
5937;SDS011;2994;51.220;4.412;2022-07-12T10:46:24;5.73;;;5.33;;
5937;SDS011;2994;51.220;4.412;2022-07-12T10:48:50;5.80;;;5.30;;
5937;SDS011;2994;51.220;4.412;2022-07-12T10:51:16;6.33;;;5.83;;
5937;SDS011;2994;51.220;4.412;2022-07-12T10:53:46;6.37;;;5.47;;
5937;SDS011;2994;51.220;4.412;2022-07-12T10:58:57;4.97;;;4.57;;
5937;SDS011;2994;51.220;4.412;2022-07-12T11:01:24;6.03;;;5.53;;
5937;SDS011;2994;51.220;4.412;2022-07-12T11:04:07;6.33;;;5.83;;
5937;SDS011;2994;51.220;4.412;2022-07-12T11:06:40;6.40;;;5.80;;
5937;SDS011;2994;51.220;4.412;2022-07-12T11:09:07;6.00;;;5.50;;
5937;SDS011;2994;51.220;4.412;2022-07-12T11:11:39;5.03;;;4.53;;
5937;SDS011;2994;51.220;4.412;2022-07-12T11:14:08;5.40;;;5.00;;
5937;SDS011;2994;51.220;4.412;2022-07-12T11:16:34;5.80;;;5.33;;
5937;SDS011;2994;51.220;4.412;2022-07-12T11:18:59;5.90;;;5.40;;
5937;SDS011;2994;51.220;4.412;2022-07-12T11:21:25;5.43;;;4.93;;
5937;SDS011;2994;51.220;4.412;2022-07-12T11:23:51;5.80;;;5.30;;
5937;SDS011;2994;51.220;4.412;2022-07-12T11:26:17;5.47;;;5.07;;
5937;SDS011;2994;51.220;4.412;2022-07-12T11:28:43;6.47;;;5.87;;
5937;SDS011;2994;51.220;4.412;2022-07-12T11:31:13;5.30;;;4.80;;
5937;SDS011;2994;51.220;4.412;2022-07-12T11:33:41;5.30;;;4.90;;
5937;SDS011;2994;51.220;4.412;2022-07-12T11:36:09;6.60;;;6.00;;
5937;SDS011;2994;51.220;4.412;2022-07-12T11:38:36;6.00;;;5.40;;
5937;SDS011;2994;51.220;4.412;2022-07-12T11:41:03;6.53;;;5.93;;
5937;SDS011;2994;51.220;4.412;2022-07-12T11:43:30;6.47;;;5.37;;
5937;SDS011;2994;51.220;4.412;2022-07-12T11:45:57;5.77;;;5.27;;
5937;SDS011;2994;51.220;4.412;2022-07-12T11:48:23;6.77;;;5.57;;
5937;SDS011;2994;51.220;4.412;2022-07-12T11:50:50;6.10;;;5.20;;
5937;SDS011;2994;51.220;4.412;2022-07-12T11:53:23;5.40;;;4.90;;
5937;SDS011;2994;51.220;4.412;2022-07-12T11:55:51;5.80;;;5.30;;
5937;SDS011;2994;51.220;4.412;2022-07-12T11:58:20;6.27;;;5.77;;
5937;SDS011;2994;51.220;4.412;2022-07-12T12:00:47;8.67;;;5.93;;
5937;SDS011;2994;51.220;4.412;2022-07-12T12:03:14;5.73;;;5.30;;
5937;SDS011;2994;51.220;4.412;2022-07-12T12:05:41;5.43;;;5.03;;
5937;SDS011;2994;51.220;4.412;2022-07-12T12:08:07;5.00;;;4.60;;
5937;SDS011;2994;51.220;4.412;2022-07-12T12:10:35;5.47;;;4.97;;
5937;SDS011;2994;51.220;4.412;2022-07-12T12:13:00;5.90;;;5.30;;
5937;SDS011;2994;51.220;4.412;2022-07-12T12:15:27;4.80;;;4.40;;
5937;SDS011;2994;51.220;4.412;2022-07-12T12:18:01;4.90;;;4.40;;
5937;SDS011;2994;51.220;4.412;2022-07-12T12:20:37;4.97;;;4.57;;
5937;SDS011;2994;51.220;4.412;2022-07-12T12:23:14;5.03;;;4.60;;
5937;SDS011;2994;51.220;4.412;2022-07-12T12:25:41;4.47;;;4.10;;
5937;SDS011;2994;51.220;4.412;2022-07-12T12:28:07;4.43;;;4.13;;
5937;SDS011;2994;51.220;4.412;2022-07-12T12:30:33;4.83;;;4.40;;
5937;SDS011;2994;51.220;4.412;2022-07-12T12:33:04;4.00;;;3.70;;
5937;SDS011;2994;51.220;4.412;2022-07-12T12:35:35;4.23;;;3.93;;
5937;SDS011;2994;51.220;4.412;2022-07-12T12:38:15;4.30;;;3.90;;
5937;SDS011;2994;51.220;4.412;2022-07-12T12:40:41;3.60;;;3.30;;
5937;SDS011;2994;51.220;4.412;2022-07-12T12:43:19;2.93;;;2.73;;
5937;SDS011;2994;51.220;4.412;2022-07-12T12:45:52;2.90;;;2.40;;
5937;SDS011;2994;51.220;4.412;2022-07-12T12:48:25;3.53;;;3.23;;
5937;SDS011;2994;51.220;4.412;2022-07-12T12:50:53;4.57;;;3.83;;
5937;SDS011;2994;51.220;4.412;2022-07-12T12:53:20;3.83;;;3.43;;
5937;SDS011;2994;51.220;4.412;2022-07-12T12:55:49;4.30;;;3.90;;
5937;SDS011;2994;51.220;4.412;2022-07-12T12:58:19;4.30;;;3.90;;
5937;SDS011;2994;51.220;4.412;2022-07-12T13:00:46;4.27;;;3.93;;
5937;SDS011;2994;51.220;4.412;2022-07-12T13:03:15;5.33;;;4.10;;
5937;SDS011;2994;51.220;4.412;2022-07-12T13:05:42;4.27;;;3.97;;
5937;SDS011;2994;51.220;4.412;2022-07-12T13:08:08;4.90;;;4.43;;
5937;SDS011;2994;51.220;4.412;2022-07-12T13:10:35;7.40;;;4.73;;
5937;SDS011;2994;51.220;4.412;2022-07-12T13:13:01;3.87;;;3.57;;
5937;SDS011;2994;51.220;4.412;2022-07-12T13:15:28;3.53;;;3.23;;
5937;SDS011;2994;51.220;4.412;2022-07-12T13:17:54;4.53;;;3.30;;
5937;SDS011;2994;51.220;4.412;2022-07-12T13:20:20;4.03;;;3.63;;
5937;SDS011;2994;51.220;4.412;2022-07-12T13:22:46;5.10;;;4.43;;
5937;SDS011;2994;51.220;4.412;2022-07-12T13:25:12;3.93;;;3.63;;
5937;SDS011;2994;51.220;4.412;2022-07-12T13:27:39;3.80;;;3.50;;
5937;SDS011;2994;51.220;4.412;2022-07-12T13:30:06;4.10;;;3.63;;
5937;SDS011;2994;51.220;4.412;2022-07-12T13:32:34;3.97;;;3.67;;
5937;SDS011;2994;51.220;4.412;2022-07-12T13:35:01;3.53;;;3.23;;
5937;SDS011;2994;51.220;4.412;2022-07-12T13:37:27;3.50;;;3.20;;
5937;SDS011;2994;51.220;4.412;2022-07-12T13:39:53;3.93;;;3.20;;
5937;SDS011;2994;51.220;4.412;2022-07-12T13:42:43;3.57;;;3.27;;
5937;SDS011;2994;51.220;4.412;2022-07-12T13:45:11;12.23;;;3.73;;
5937;SDS011;2994;51.220;4.412;2022-07-12T13:47:39;3.87;;;3.33;;
5937;SDS011;2994;51.220;4.412;2022-07-12T13:50:05;4.37;;;3.80;;
5937;SDS011;2994;51.220;4.412;2022-07-12T13:52:31;3.73;;;3.43;;
5937;SDS011;2994;51.220;4.412;2022-07-12T13:54:57;3.23;;;3.00;;
5937;SDS011;2994;51.220;4.412;2022-07-12T13:57:22;3.67;;;3.23;;
5937;SDS011;2994;51.220;4.412;2022-07-12T13:59:48;4.07;;;3.67;;
5937;SDS011;2994;51.220;4.412;2022-07-12T14:02:14;4.00;;;3.60;;
5937;SDS011;2994;51.220;4.412;2022-07-12T14:04:40;4.00;;;3.50;;
5937;SDS011;2994;51.220;4.412;2022-07-12T14:07:05;3.93;;;3.63;;
5937;SDS011;2994;51.220;4.412;2022-07-12T14:09:30;4.13;;;3.83;;
5937;SDS011;2994;51.220;4.412;2022-07-12T14:11:56;3.73;;;3.43;;
5937;SDS011;2994;51.220;4.412;2022-07-12T14:14:21;4.20;;;3.90;;
5937;SDS011;2994;51.220;4.412;2022-07-12T14:17:05;5.90;;;5.47;;
5937;SDS011;2994;51.220;4.412;2022-07-12T14:19:31;6.90;;;4.20;;
5937;SDS011;2994;51.220;4.412;2022-07-12T14:21:57;4.27;;;3.97;;
5937;SDS011;2994;51.220;4.412;2022-07-12T14:24:23;4.00;;;3.53;;
5937;SDS011;2994;51.220;4.412;2022-07-12T14:26:48;4.97;;;3.93;;
5937;SDS011;2994;51.220;4.412;2022-07-12T14:29:14;4.00;;;3.70;;
5937;SDS011;2994;51.220;4.412;2022-07-12T14:31:40;4.87;;;4.37;;
5937;SDS011;2994;51.220;4.412;2022-07-12T14:34:05;4.43;;;4.00;;
5937;SDS011;2994;51.220;4.412;2022-07-12T14:36:31;3.30;;;3.03;;
5937;SDS011;2994;51.220;4.412;2022-07-12T14:38:56;3.37;;;3.07;;
5937;SDS011;2994;51.220;4.412;2022-07-12T14:41:22;3.50;;;3.23;;
5937;SDS011;2994;51.220;4.412;2022-07-12T14:43:47;5.30;;;3.73;;
5937;SDS011;2994;51.220;4.412;2022-07-12T14:46:14;3.83;;;3.40;;
5937;SDS011;2994;51.220;4.412;2022-07-12T14:48:41;4.60;;;4.20;;
5937;SDS011;2994;51.220;4.412;2022-07-12T14:51:07;4.23;;;3.93;;
5937;SDS011;2994;51.220;4.412;2022-07-12T14:53:32;4.03;;;3.73;;
5937;SDS011;2994;51.220;4.412;2022-07-12T14:55:58;4.40;;;4.00;;
5937;SDS011;2994;51.220;4.412;2022-07-12T14:58:24;5.17;;;3.93;;
5937;SDS011;2994;51.220;4.412;2022-07-12T15:00:49;4.27;;;3.90;;
5937;SDS011;2994;51.220;4.412;2022-07-12T15:03:15;4.00;;;3.70;;
5937;SDS011;2994;51.220;4.412;2022-07-12T15:05:40;5.23;;;4.20;;
5937;SDS011;2994;51.220;4.412;2022-07-12T15:08:06;6.37;;;4.10;;
5937;SDS011;2994;51.220;4.412;2022-07-12T15:10:31;3.67;;;3.47;;
5937;SDS011;2994;51.220;4.412;2022-07-12T15:12:57;4.50;;;4.10;;
5937;SDS011;2994;51.220;4.412;2022-07-12T15:15:23;4.50;;;3.90;;
5937;SDS011;2994;51.220;4.412;2022-07-12T15:17:48;4.20;;;3.90;;
5937;SDS011;2994;51.220;4.412;2022-07-12T15:20:14;4.93;;;4.50;;
5937;SDS011;2994;51.220;4.412;2022-07-12T15:25:15;3.87;;;3.53;;
5937;SDS011;2994;51.220;4.412;2022-07-12T15:27:40;4.73;;;4.33;;
5937;SDS011;2994;51.220;4.412;2022-07-12T15:30:06;4.10;;;3.80;;